Time;durP1;ratioP1;P1;durP2;ratioP2;P2;SDS_P1;SDS_P2;PMS_P1;PMS_P2;Temp;Humidity;BMP_temperature;BMP_pressure;BME280_temperature;BME280_humidity;BME280_pressure;Samples;Min_cycle;Max_cycle;Signal;HPM_P1;HPM_P2
2021/08/09 00:02:11;;;;;;;;;3.50;3.00;;;;;18.36;58.56;100820.09;5019121;28;45333;-60
2021/08/09 00:04:39;;;;;;;;;2.50;2.00;;;;;18.34;58.27;100823.97;5018987;28;45606;-60
2021/08/09 00:07:04;;;;;;;;;2.00;2.00;;;;;18.34;58.58;100816.00;5018783;28;46931;-60
2021/08/09 00:09:30;;;;;;;;;1.50;1.00;;;;;18.30;58.07;100815.50;5018748;28;45396;-60
2021/08/09 00:11:56;;;;;;;;;3.00;2.00;;;;;18.30;58.37;100809.38;5018878;28;45344;-60
2021/08/09 00:14:21;;;;;;;;;3.00;2.00;;;;;18.30;58.19;100810.19;5018861;28;45599;-59
2021/08/09 00:16:47;;;;;;;;;2.00;1.75;;;;;18.29;57.84;100813.84;5017742;28;73025;-60
2021/08/09 00:19:12;;;;;;;;;3.00;1.00;;;;;18.29;58.33;100813.03;5018677;28;45465;-60
2021/08/09 00:21:37;;;;;;;;;2.00;1.50;;;;;18.29;58.12;100815.69;5018811;28;45442;-60
2021/08/09 00:24:03;;;;;;;;;1.00;1.00;;;;;18.30;58.24;100820.00;5017813;28;69450;-60
2021/08/09 00:26:30;;;;;;;;;1.00;1.00;;;;;18.29;58.43;100821.03;5018579;28;46735;-61
2021/08/09 00:28:56;;;;;;;;;3.00;2.00;;;;;18.26;57.97;100816.06;5018646;28;45928;-60
2021/08/09 00:31:21;;;;;;;;;3.00;1.00;;;;;18.24;57.62;100809.09;5018723;28;45374;-60
2021/08/09 00:33:46;;;;;;;;;2.00;1.00;;;;;18.22;57.95;100805.78;5018188;28;46168;-60
2021/08/09 00:36:12;;;;;;;;;2.00;2.00;;;;;18.20;57.71;100802.47;5017324;28;73604;-60
2021/08/09 00:38:37;;;;;;;;;1.00;1.00;;;;;18.19;57.78;100800.81;5017465;28;68748;-60
2021/08/09 00:41:02;;;;;;;;;2.50;1.50;;;;;18.20;57.35;100793.69;5017583;28;65133;-60
2021/08/09 00:43:28;;;;;;;;;1.25;1.00;;;;;18.19;57.04;100798.16;5017516;28;65724;-60
2021/08/09 00:45:53;;;;;;;;;2.50;2.00;;;;;18.19;57.02;100806.13;5018201;28;45379;-61
2021/08/09 00:48:19;;;;;;;;;3.00;1.25;;;;;18.19;57.08;100798.16;5018125;28;45331;-61
2021/08/09 00:50:45;;;;;;;;;1.00;1.00;;;;;18.19;57.30;100808.78;5018372;28;45664;-61
2021/08/09 00:53:10;;;;;;;;;1.00;1.00;;;;;18.19;56.92;100806.13;5017013;28;45551;-60
2021/08/09 00:55:36;;;;;;;;;1.00;1.00;;;;;18.20;56.74;100810.44;5015821;28;72762;-60
2021/08/09 00:58:02;;;;;;;;;2.00;2.00;;;;;18.23;56.72;100804.78;5018180;28;45216;-61
2021/08/09 01:00:27;;;;;;;;;2.00;1.00;;;;;18.23;56.56;100810.09;5016546;28;45294;-60
2021/08/09 01:02:53;;;;;;;;;0.00;0.00;;;;;18.22;56.47;100797.00;5017799;28;52130;-60
2021/08/09 01:05:18;;;;;;;;;1.00;1.00;;;;;18.22;56.22;100791.66;5017242;28;73196;-60
2021/08/09 01:07:50;;;;;;;;;1.00;1.00;;;;;18.23;56.57;100795.97;5017849;28;45965;-61
2021/08/09 01:10:24;;;;;;;;;1.00;1.00;;;;;18.22;56.25;100797.00;5016986;28;45260;-60
2021/08/09 01:13:10;;;;;;;;;2.00;1.00;;;;;18.22;56.41;100795.13;5016859;28;45417;-60
2021/08/09 01:15:36;;;;;;;;;1.00;1.00;;;;;18.22;56.47;100794.31;5017875;28;47074;-59
2021/08/09 01:18:02;;;;;;;;;1.75;1.00;;;;;18.20;56.70;100791.84;5000212;28;45409;-60
2021/08/09 01:20:50;;;;;;;;;0.50;0.50;;;;;18.20;56.57;100793.69;5016495;28;45476;-61
2021/08/09 01:23:15;;;;;;;;;3.00;1.00;;;;;18.18;56.97;100788.53;5016642;28;45426;-60
2021/08/09 01:25:59;;;;;;;;;1.00;1.00;;;;;18.19;56.96;100784.84;5017520;28;46442;-60
2021/08/09 01:28:27;;;;;;;;;1.25;0.75;;;;;18.18;56.90;100790.38;5017858;28;45390;-60
2021/08/09 01:30:55;;;;;;;;;2.00;1.00;;;;;18.14;56.81;100778.44;5017402;28;47074;-61
2021/08/09 01:33:20;;;;;;;;;0.50;0.50;;;;;18.13;57.11;100779.44;5015923;28;45293;-60
2021/08/09 01:35:46;;;;;;;;;1.00;1.00;;;;;18.09;57.11;100781.63;5015380;28;66756;-60
2021/08/09 01:38:11;;;;;;;;;1.75;1.00;;;;;18.08;57.35;100795.91;5016356;28;45229;-60
2021/08/09 01:40:36;;;;;;;;;1.75;1.50;;;;;18.06;57.32;100790.78;4998914;28;65258;-60
2021/08/09 01:43:02;;;;;;;;;3.00;1.50;;;;;18.05;57.32;100796.28;4999725;28;45237;-60
2021/08/09 01:45:27;;;;;;;;;1.00;1.00;;;;;18.03;57.39;100788.50;5016587;28;48561;-61
2021/08/09 01:47:53;;;;;;;;;1.00;1.00;;;;;18.04;57.18;100792.81;5017334;28;45183;-60
2021/08/09 01:50:18;;;;;;;;;1.00;1.00;;;;;18.02;57.28;100791.31;5015855;28;49370;-60
2021/08/09 01:52:44;;;;;;;;;1.00;1.00;;;;;17.99;57.39;100787.19;4998858;28;62855;-60
2021/08/09 01:55:11;;;;;;;;;3.50;1.00;;;;;17.97;57.21;100793.69;5016925;28;45269;-60
2021/08/09 01:57:36;;;;;;;;;1.25;0.75;;;;;17.95;57.39;100794.69;5016987;28;45835;-60
2021/08/09 02:00:06;;;;;;;;;3.50;1.75;;;;;17.92;57.03;100796.84;5017015;28;45427;-59
2021/08/09 02:02:32;;;;;;;;;2.00;1.00;;;;;17.90;57.42;100794.38;5017197;28;45514;-60
2021/08/09 02:05:11;;;;;;;;;2.00;1.00;;;;;17.87;57.58;100794.75;5016723;28;55298;-60
2021/08/09 02:07:38;;;;;;;;;2.00;1.00;;;;;17.85;57.57;100787.94;5016659;28;51884;-61
2021/08/09 02:10:05;;;;;;;;;0.75;0.75;;;;;17.81;57.52;100790.13;5015866;28;45496;-60
2021/08/09 02:12:31;;;;;;;;;2.00;1.00;;;;;17.82;57.40;100796.25;5017061;28;45352;-61
2021/08/09 02:14:57;;;;;;;;;1.50;1.00;;;;;17.79;57.58;100779.66;5014723;28;75155;-60
2021/08/09 02:17:31;;;;;;;;;1.00;1.00;;;;;17.78;57.83;100791.31;5015705;28;45817;-60
2021/08/09 02:20:03;;;;;;;;;1.50;0.50;;;;;17.76;57.84;100792.50;5015679;28;45206;-60
2021/08/09 02:22:39;;;;;;;;;3.00;0.00;;;;;17.75;57.69;100790.84;5015716;28;45574;-60
2021/08/09 02:25:09;;;;;;;;;3.00;1.25;;;;;17.74;57.52;100794.50;5015503;28;46432;-61
2021/08/09 02:27:43;;;;;;;;;4.25;1.00;;;;;17.72;57.73;100796.50;5015521;28;45897;-59
2021/08/09 02:30:09;;;;;;;;;3.50;1.00;;;;;17.70;57.80;100793.19;4999144;28;45302;-60
2021/08/09 02:32:34;;;;;;;;;1.00;1.00;;;;;17.69;57.92;100795.03;4998990;28;45301;-59
2021/08/09 02:34:59;;;;;;;;;4.00;3.00;;;;;17.69;57.85;100802.19;5014607;28;66798;-61
2021/08/09 02:37:25;;;;;;;;;2.00;2.00;;;;;17.68;58.27;100797.88;4997844;28;72173;-59
2021/08/09 02:39:52;;;;;;;;;4.00;1.75;;;;;17.63;58.19;100801.88;4999019;28;45353;-61
2021/08/09 02:42:17;;;;;;;;;2.50;1.25;;;;;17.63;58.47;100803.72;5014441;28;66419;-60
2021/08/09 02:44:43;;;;;;;;;1.00;1.00;;;;;17.59;58.58;100803.22;4997667;28;75615;-61
2021/08/09 02:47:10;;;;;;;;;1.50;1.00;;;;;17.56;58.74;100798.25;5016450;28;45467;-60
2021/08/09 02:49:35;;;;;;;;;12.25;12.25;;;;;17.53;58.63;100798.63;4998668;28;45496;-60
2021/08/09 02:52:01;;;;;;;;;3.75;3.00;;;;;17.51;58.68;100805.94;4998495;28;45290;-60
2021/08/09 02:54:27;;;;;;;;;5.00;1.75;;;;;17.48;58.70;100790.38;5014644;28;56083;-60
2021/08/09 02:56:52;;;;;;;;;1.00;1.00;;;;;17.42;59.07;100797.19;5015935;28;45336;-60
2021/08/09 02:59:18;;;;;;;;;1.00;1.00;;;;;17.41;58.89;100803.50;4997604;28;69342;-61
2021/08/09 03:01:43;;;;;;;;;2.50;1.25;;;;;17.40;59.11;100806.34;5031408;28;50954;-60
2021/08/09 03:04:15;;;;;;;;;3.00;1.00;;;;;17.39;59.03;100810.00;5014906;28;45986;-60
2021/08/09 03:06:40;;;;;;;;;2.00;1.00;;;;;17.37;59.56;100814.66;4999304;28;45674;-59
2021/08/09 03:09:06;;;;;;;;;2.00;1.00;;;;;17.32;59.57;100807.19;5015429;28;66894;-59
2021/08/09 03:11:33;;;;;;;;;1.00;1.00;;;;;17.28;59.49;100811.19;4998781;28;45491;-60
2021/08/09 03:13:59;;;;;;;;;1.00;1.00;;;;;17.21;59.59;100813.75;5015884;28;45292;-60
2021/08/09 03:16:24;;;;;;;;;3.00;1.00;;;;;17.16;59.80;100811.63;5015080;28;73184;-60
2021/08/09 03:18:49;;;;;;;;;1.00;1.00;;;;;17.10;59.83;100801.69;5014941;28;45203;-59
2021/08/09 03:21:15;;;;;;;;;2.00;1.75;;;;;17.07;60.10;100802.03;5016189;28;45555;-60
2021/08/09 03:23:40;;;;;;;;;1.00;1.00;;;;;17.03;60.34;100804.19;5014783;28;73718;-60
2021/08/09 03:26:06;;;;;;;;;2.25;2.00;;;;;17.00;60.54;100801.06;5015994;28;45263;-59
2021/08/09 03:28:31;;;;;;;;;5.00;1.00;;;;;16.97;60.47;100804.06;5015723;28;45430;-61
2021/08/09 03:30:57;;;;;;;;;2.00;2.00;;;;;16.94;60.48;100810.50;5015936;28;45601;-60
2021/08/09 03:33:22;;;;;;;;;1.50;1.00;;;;;16.89;60.69;100807.53;5015695;28;45848;-60
2021/08/09 03:35:48;;;;;;;;;2.25;1.00;;;;;16.87;61.05;100809.53;5014933;28;67307;-60
2021/08/09 03:38:13;;;;;;;;;0.75;0.75;;;;;16.82;61.22;100803.91;5015110;28;66923;-60
2021/08/09 03:40:38;;;;;;;;;2.00;1.00;;;;;16.77;61.20;100815.84;5015254;28;61325;-60
2021/08/09 03:43:04;;;;;;;;;1.00;1.00;;;;;16.76;61.10;100808.91;5014630;28;72048;-60
2021/08/09 03:45:30;;;;;;;;;3.25;2.00;;;;;16.71;60.71;100810.38;5015717;28;45343;-60
2021/08/09 03:47:55;;;;;;;;;1.00;1.00;;;;;16.69;60.82;100810.56;5015786;28;45312;-60
2021/08/09 03:50:20;;;;;;;;;2.00;1.00;;;;;16.66;61.20;100812.75;5014730;28;70061;-60
2021/08/09 03:52:47;;;;;;;;;2.50;1.00;;;;;16.63;61.24;100813.09;5014850;28;64989;-60
2021/08/09 03:55:12;;;;;;;;;3.00;1.00;;;;;16.59;60.90;100813.41;5014304;28;45825;-60
2021/08/09 03:57:38;;;;;;;;;4.00;1.50;;;;;16.56;61.45;100813.75;5015762;28;45356;-59
2021/08/09 04:00:04;;;;;;;;;2.75;1.00;;;;;16.55;61.21;100816.56;5014802;28;55527;-60
2021/08/09 04:02:31;;;;;;;;;1.00;1.00;;;;;16.52;61.37;100822.19;5015525;28;46027;-60
2021/08/09 04:04:58;;;;;;;;;1.50;1.50;;;;;16.49;61.44;100814.56;5015568;28;45334;-60
2021/08/09 04:07:27;;;;;;;;;1.75;1.75;;;;;16.47;61.41;100818.22;5015554;28;45297;-60
2021/08/09 04:09:52;;;;;;;;;3.25;1.00;;;;;16.46;61.35;100818.41;5017772;28;45311;-60
2021/08/09 04:12:18;;;;;;;;;1.00;1.00;;;;;16.46;61.41;100819.22;5017745;28;45747;-60
2021/08/09 04:14:43;;;;;;;;;1.75;1.00;;;;;16.46;61.59;100818.41;5018225;28;59859;-60
2021/08/09 04:17:09;;;;;;;;;2.00;2.00;;;;;16.45;62.05;100820.22;5018939;28;45316;-59
2021/08/09 04:19:34;;;;;;;;;1.25;1.25;;;;;16.44;61.79;100821.22;5017804;28;66411;-60
2021/08/09 04:21:59;;;;;;;;;3.75;2.00;;;;;16.42;61.83;100817.09;5017828;28;71517;-61
2021/08/09 04:24:25;;;;;;;;;3.00;1.00;;;;;16.40;62.05;100819.91;5017599;28;73289;-60
2021/08/09 04:26:50;;;;;;;;;1.25;1.00;;;;;16.42;61.86;100828.53;5018052;28;65374;-60
2021/08/09 04:29:15;;;;;;;;;1.50;1.50;;;;;16.42;61.92;100825.88;5018084;28;64086;-60
2021/08/09 04:31:42;;;;;;;;;2.00;1.00;;;;;16.43;61.88;100832.81;5017485;28;72649;-60
2021/08/09 04:34:07;;;;;;;;;1.75;1.00;;;;;16.42;62.17;100833.00;5018509;28;45381;-60
2021/08/09 04:36:33;;;;;;;;;2.00;2.00;;;;;16.40;62.07;100833.19;5018000;28;56597;-60
2021/08/09 04:38:58;;;;;;;;;6.50;2.50;;;;;16.40;62.12;100835.00;5018626;28;45296;-60
2021/08/09 04:41:24;;;;;;;;;2.00;2.00;;;;;16.41;62.14;100844.59;5018272;28;45257;-60
2021/08/09 04:43:49;;;;;;;;;2.50;1.00;;;;;16.42;62.06;100856.88;5017671;28;62402;-61
2021/08/09 04:46:14;;;;;;;;;2.00;0.50;;;;;16.40;62.10;100854.41;5017525;28;68262;-61
2021/08/09 04:48:40;;;;;;;;;3.00;2.00;;;;;16.41;62.22;100857.84;5018527;28;45578;-61
2021/08/09 04:51:05;;;;;;;;;2.25;1.50;;;;;16.42;62.32;100854.22;5018069;28;46145;-59
2021/08/09 04:53:30;;;;;;;;;2.00;1.50;;;;;16.42;62.17;100852.41;5017244;28;72335;-60
2021/08/09 04:55:56;;;;;;;;;1.50;1.25;;;;;16.43;62.61;100851.38;5033186;28;52596;-60
2021/08/09 04:58:21;;;;;;;;;3.50;1.00;;;;;16.45;62.45;100859.19;5017505;28;60167;-59
2021/08/09 05:00:46;;;;;;;;;3.25;1.75;;;;;16.46;62.14;100866.16;5016820;28;71474;-59
2021/08/09 05:03:12;;;;;;;;;2.00;2.00;;;;;16.46;62.39;100859.00;5018136;28;45305;-60
2021/08/09 05:05:37;;;;;;;;;2.75;1.00;;;;;16.47;62.29;100858.00;5018146;28;45232;-60
2021/08/09 05:08:03;;;;;;;;;1.00;1.00;;;;;16.50;62.36;100856.03;5017292;28;63012;-60
2021/08/09 05:10:28;;;;;;;;;7.50;3.00;;;;;16.51;62.30;100858.53;5017363;28;46000;-60
2021/08/09 05:12:54;;;;;;;;;5.00;2.50;;;;;16.53;62.36;100859.19;5017928;28;45364;-60
2021/08/09 05:15:21;;;;;;;;;1.50;1.50;;;;;16.55;62.23;100856.34;5017424;28;55769;-60
2021/08/09 05:17:46;;;;;;;;;2.00;2.00;;;;;16.54;62.17;100852.88;5017913;28;45418;-59
2021/08/09 05:20:12;;;;;;;;;1.25;1.25;;;;;16.55;62.11;100853.69;5016726;28;46840;-59
2021/08/09 05:22:37;;;;;;;;;1.00;1.00;;;;;16.56;62.13;100855.34;5017674;28;45325;-60
2021/08/09 05:25:04;;;;;;;;;3.50;2.00;;;;;16.56;62.35;100855.34;5016962;28;58952;-59
2021/08/09 05:27:30;;;;;;;;;2.00;2.00;;;;;16.56;61.87;100860.66;5017809;28;45547;-60
2021/08/09 05:29:55;;;;;;;;;4.75;2.50;;;;;16.55;62.33;100866.97;5017237;28;52856;-59
2021/08/09 05:32:20;;;;;;;;;2.00;1.00;;;;;16.54;62.46;100879.41;5017600;28;45350;-59
2021/08/09 05:34:46;;;;;;;;;2.00;1.00;;;;;16.56;62.39;100881.88;5016844;28;64812;-60
2021/08/09 05:37:12;;;;;;;;;3.75;2.00;;;;;16.56;62.16;100882.72;5017498;28;45339;-59
2021/08/09 05:39:38;;;;;;;;;2.50;1.75;;;;;16.55;62.33;100862.50;5032684;28;47019;-60
2021/08/09 05:42:03;;;;;;;;;1.00;1.00;;;;;16.56;62.24;100856.19;5015417;28;72070;-59
2021/08/09 05:44:29;;;;;;;;;1.25;1.00;;;;;16.56;62.17;100855.34;5016572;28;67480;-59
2021/08/09 05:46:54;;;;;;;;;1.25;1.25;;;;;16.56;62.28;100860.66;5016478;28;70786;-60
2021/08/09 05:49:19;;;;;;;;;2.75;2.00;;;;;16.58;62.37;100858.66;5016368;28;68822;-59
2021/08/09 05:51:45;;;;;;;;;3.25;2.00;;;;;16.59;62.23;100855.03;5016421;28;67833;-60
2021/08/09 05:54:10;;;;;;;;;3.00;3.00;;;;;16.61;62.61;100858.34;5016813;28;57728;-59
2021/08/09 05:56:35;;;;;;;;;2.00;1.00;;;;;16.61;62.29;100861.84;5017263;28;45293;-58
2021/08/09 05:59:01;;;;;;;;;2.00;2.00;;;;;16.61;62.36;100868.94;5017198;28;45808;-59
2021/08/09 06:01:26;;;;;;;;;1.50;1.00;;;;;16.61;62.34;100874.25;5016991;28;45349;-59
2021/08/09 06:03:52;;;;;;;;;2.00;1.00;;;;;16.61;62.63;100863.63;5016948;28;45445;-59
2021/08/09 06:06:18;;;;;;;;;3.00;2.00;;;;;16.62;62.45;100873.25;5016224;28;66479;-59
2021/08/09 06:08:44;;;;;;;;;3.00;2.00;;;;;16.64;62.54;100870.44;5016886;28;46160;-60
2021/08/09 06:11:10;;;;;;;;;2.75;2.00;;;;;16.65;62.59;100864.16;5017076;28;45899;-60
2021/08/09 06:13:53;;;;;;;;;3.00;2.00;;;;;16.68;62.44;100861.97;5016359;28;65347;-59
2021/08/09 06:16:19;;;;;;;;;1.75;1.75;;;;;16.70;62.35;100872.41;5017120;28;45638;-60
2021/08/09 06:18:44;;;;;;;;;1.00;1.00;;;;;16.71;62.34;100877.56;5016266;28;63295;-60
2021/08/09 06:21:10;;;;;;;;;3.00;1.75;;;;;16.72;62.56;100892.47;5016400;28;51929;-60
2021/08/09 06:23:35;;;;;;;;;1.75;1.75;;;;;16.74;62.35;100887.00;5017068;28;45573;-59
2021/08/09 06:26:01;;;;;;;;;1.00;1.00;;;;;16.76;62.60;100885.84;5016402;28;45161;-59
2021/08/09 06:28:26;;;;;;;;;1.00;1.00;;;;;16.80;62.54;100896.13;5016578;28;45751;-59
2021/08/09 06:30:51;;;;;;;;;2.25;2.00;;;;;16.82;62.86;100894.13;5016589;28;45252;-59
2021/08/09 06:33:17;;;;;;;;;1.50;1.50;;;;;16.84;62.57;100890.31;5015660;28;64177;-59
2021/08/09 06:35:42;;;;;;;;;2.25;1.25;;;;;16.87;62.60;100889.16;5016794;28;45232;-59
2021/08/09 06:38:08;;;;;;;;;2.75;2.00;;;;;16.89;62.56;100895.13;5016516;28;45821;-59
2021/08/09 06:40:34;;;;;;;;;4.00;2.00;;;;;16.94;62.49;100900.75;5016323;28;45372;-59
2021/08/09 06:43:03;;;;;;;;;1.75;1.75;;;;;16.97;62.88;100908.38;5016546;28;45376;-60
2021/08/09 06:45:29;;;;;;;;;4.00;2.75;;;;;16.99;62.62;100902.91;5016688;28;45328;-60
2021/08/09 06:47:54;;;;;;;;;2.50;2.00;;;;;17.01;62.68;100890.31;5016263;28;49249;-60
2021/08/09 06:50:20;;;;;;;;;4.00;3.00;;;;;17.03;62.62;100905.06;5016111;28;51262;-59
2021/08/09 06:52:45;;;;;;;;;3.25;2.00;;;;;17.04;62.56;100905.91;5016688;28;45378;-59
2021/08/09 06:55:11;;;;;;;;;1.00;1.00;;;;;17.06;62.58;100903.91;5016332;28;45561;-60
2021/08/09 06:57:36;;;;;;;;;3.25;2.25;;;;;17.08;62.43;100901.91;5015781;28;45366;-59
2021/08/09 07:00:02;;;;;;;;;5.50;3.00;;;;;17.09;62.47;100908.03;5015950;28;45340;-59
2021/08/09 07:02:28;;;;;;;;;3.00;1.25;;;;;17.09;62.29;100908.03;5016143;28;45304;-60
2021/08/09 07:04:53;;;;;;;;;3.00;2.00;;;;;17.08;62.61;100909.03;5031523;28;45556;-59
2021/08/09 07:07:18;;;;;;;;;3.25;2.00;;;;;17.08;62.69;100914.34;5015041;28;75581;-59
2021/08/09 07:09:44;;;;;;;;;3.25;1.75;;;;;17.08;62.58;100923.16;5016041;28;46236;-60
2021/08/09 07:12:10;;;;;;;;;2.00;2.00;;;;;17.09;63.05;100913.34;5015240;28;60973;-60
2021/08/09 07:14:36;;;;;;;;;3.00;3.00;;;;;17.08;63.07;100917.84;5015969;28;45483;-59
2021/08/09 07:17:01;;;;;;;;;2.00;2.00;;;;;17.09;63.50;100911.53;5015845;28;45350;-60
2021/08/09 07:19:27;;;;;;;;;3.75;3.50;;;;;17.11;63.36;100909.53;5015860;28;45383;-59
2021/08/09 07:21:52;;;;;;;;;2.00;2.00;;;;;17.11;63.45;100914.00;5015917;28;45337;-59
2021/08/09 07:24:18;;;;;;;;;2.50;2.00;;;;;17.12;63.80;100921.81;5015753;28;45264;-59
2021/08/09 07:26:43;;;;;;;;;6.25;3.00;;;;;17.14;63.73;100918.97;5015994;28;45428;-60
2021/08/09 07:29:09;;;;;;;;;3.75;2.75;;;;;17.15;63.99;100918.81;5014481;28;45314;-59
2021/08/09 07:31:34;;;;;;;;;5.00;2.50;;;;;17.16;63.99;100916.97;5015922;28;45352;-59
2021/08/09 07:33:59;;;;;;;;;2.00;2.00;;;;;17.17;64.17;100922.13;5015379;28;51504;-60
2021/08/09 07:36:25;;;;;;;;;2.00;2.00;;;;;17.20;64.21;100911.16;5015084;28;67356;-59
2021/08/09 07:38:50;;;;;;;;;6.00;2.00;;;;;17.24;63.97;100919.59;5014569;28;73125;-60
2021/08/09 07:41:15;;;;;;;;;3.00;3.00;;;;;17.25;64.56;100921.28;5014815;28;68284;-59
2021/08/09 07:43:41;;;;;;;;;2.75;2.50;;;;;17.30;65.02;100923.41;5016724;28;45209;-59
2021/08/09 07:46:06;;;;;;;;;2.50;1.50;;;;;17.33;64.80;100917.75;5018202;28;74589;-59
2021/08/09 07:48:32;;;;;;;;;2.50;2.50;;;;;17.39;65.05;100926.88;5019378;28;45313;-59
2021/08/09 07:50:57;;;;;;;;;2.00;2.00;;;;;17.46;64.95;100930.50;5020296;28;45201;-60
2021/08/09 07:53:23;;;;;;;;;3.50;2.00;;;;;17.51;65.04;100930.78;5019177;28;45498;-60
2021/08/09 07:55:48;;;;;;;;;4.25;2.50;;;;;17.60;64.87;100918.31;5017872;28;74597;-59
2021/08/09 07:58:13;;;;;;;;;2.25;2.00;;;;;17.71;65.44;100922.41;5018251;28;64280;-59
2021/08/09 08:00:39;;;;;;;;;2.50;2.50;;;;;17.82;64.78;100923.84;5018915;28;45380;-59
2021/08/09 08:03:04;;;;;;;;;2.25;2.00;;;;;17.90;64.72;100934.44;5019037;28;45364;-59
2021/08/09 08:05:30;;;;;;;;;3.25;3.25;;;;;17.99;64.88;100935.22;5018705;28;45306;-59
2021/08/09 08:07:55;;;;;;;;;3.25;2.25;;;;;18.10;63.72;100937.50;5018207;28;69286;-60
2021/08/09 08:10:21;;;;;;;;;4.00;2.00;;;;;18.19;63.46;100940.97;5019164;28;45631;-59
2021/08/09 08:12:46;;;;;;;;;3.00;3.00;;;;;18.22;63.05;100935.28;5018840;28;45427;-59
2021/08/09 08:15:11;;;;;;;;;2.00;2.00;;;;;18.26;63.39;100938.41;5017933;28;69542;-59
2021/08/09 08:17:37;;;;;;;;;3.00;2.75;;;;;18.30;63.29;100937.06;5017765;28;72175;-59
2021/08/09 08:20:03;;;;;;;;;3.25;3.25;;;;;18.32;63.22;100940.34;5018716;28;45352;-60
2021/08/09 08:22:29;;;;;;;;;4.00;3.00;;;;;18.35;62.90;100948.81;5018698;28;45316;-60
2021/08/09 08:24:54;;;;;;;;;4.25;3.00;;;;;18.37;62.73;100938.00;5018448;28;45949;-60
2021/08/09 08:27:19;;;;;;;;;3.00;3.00;;;;;18.38;62.54;100929.81;5018543;28;46059;-59
2021/08/09 08:29:45;;;;;;;;;4.00;3.00;;;;;18.41;62.36;100930.47;5018552;28;45262;-59
2021/08/09 08:32:10;;;;;;;;;5.00;2.00;;;;;18.42;62.84;100932.97;5017809;28;55838;-59
2021/08/09 08:34:36;;;;;;;;;7.00;2.00;;;;;18.42;62.15;100934.78;5018165;28;51347;-60
2021/08/09 08:37:01;;;;;;;;;2.00;2.00;;;;;18.41;62.67;100939.31;5018265;28;45272;-59
2021/08/09 08:39:27;;;;;;;;;4.50;3.00;;;;;18.43;62.73;100941.75;5018516;28;45214;-59
2021/08/09 08:41:55;;;;;;;;;3.50;2.75;;;;;18.46;62.96;100942.25;5017263;28;45622;-59
2021/08/09 08:44:20;;;;;;;;;2.75;2.00;;;;;18.50;62.38;100940.91;5016967;28;47252;-60
2021/08/09 08:46:46;;;;;;;;;1.25;1.00;;;;;18.52;62.05;100938.88;5018164;28;45351;-59
2021/08/09 08:49:14;;;;;;;;;4.00;3.25;;;;;18.52;62.18;100941.53;5018279;28;45348;-59
2021/08/09 08:51:44;;;;;;;;;4.00;2.25;;;;;18.51;62.15;100945.22;5018173;28;45441;-60
2021/08/09 08:54:09;;;;;;;;;4.00;3.00;;;;;18.52;62.11;100940.69;5017980;28;48609;-59
2021/08/09 08:56:38;;;;;;;;;4.00;2.75;;;;;18.52;61.95;100943.38;5017999;28;45273;-59
2021/08/09 08:59:05;;;;;;;;;4.00;2.00;;;;;18.57;62.28;100943.66;5018081;28;45349;-59
2021/08/09 09:01:38;;;;;;;;;2.00;2.00;;;;;18.62;61.99;100954.59;5018014;28;45176;-59
2021/08/09 09:04:27;;;;;;;;;3.75;3.00;;;;;18.71;62.20;100947.34;5017881;28;45455;-59
2021/08/09 09:07:02;;;;;;;;;5.00;3.00;;;;;18.87;61.86;100964.19;5017548;28;45874;-59
2021/08/09 09:09:29;;;;;;;;;6.00;3.50;;;;;19.02;61.62;100957.09;5017807;28;45213;-60
2021/08/09 09:11:54;;;;;;;;;7.50;7.25;;;;;19.22;61.24;100957.41;5032977;28;45323;-59
2021/08/09 09:14:24;;;;;;;;;5.25;3.75;;;;;19.39;59.96;100952.69;5017626;28;45210;-59
2021/08/09 09:16:50;;;;;;;;;4.25;3.00;;;;;19.58;60.15;100963.81;5017523;28;49462;-59
2021/08/09 09:19:35;;;;;;;;;5.25;4.00;;;;;19.76;59.13;100962.59;5017783;28;45226;-60
2021/08/09 09:22:02;;;;;;;;;5.00;3.75;;;;;19.89;58.43;100964.59;5017799;28;45594;-60
2021/08/09 09:24:28;;;;;;;;;3.75;3.50;;;;;20.01;57.67;100968.44;5017558;28;45220;-59
2021/08/09 09:27:03;;;;;;;;;4.75;3.00;;;;;20.14;57.77;100971.25;5017628;28;45266;-60
2021/08/09 09:29:39;;;;;;;;;4.00;3.00;;;;;20.35;57.87;100980.31;5016106;28;45375;-60
2021/08/09 09:32:21;;;;;;;;;6.00;4.00;;;;;20.60;57.49;100978.09;5016257;28;45615;-60
2021/08/09 09:34:50;;;;;;;;;3.00;3.00;;;;;20.86;56.54;100978.53;5016146;28;45298;-59
2021/08/09 09:37:35;;;;;;;;;3.00;3.00;;;;;21.07;56.07;100974.97;5016067;28;45356;-60
2021/08/09 09:40:11;;;;;;;;;3.00;3.00;;;;;21.28;55.86;100982.09;5017635;28;45485;-60
2021/08/09 09:42:38;;;;;;;;;3.00;2.00;;;;;21.43;54.63;100990.00;5017509;28;45581;-60
2021/08/09 09:45:23;;;;;;;;;5.00;3.00;;;;;21.52;54.68;100987.16;5032334;28;45468;-60
2021/08/09 09:48:07;;;;;;;;;3.25;3.00;;;;;21.57;53.92;100979.38;5016998;28;45803;-58
2021/08/09 09:50:34;;;;;;;;;2.75;2.00;;;;;21.63;54.07;100983.97;5017295;28;45364;-59
2021/08/09 09:53:16;;;;;;;;;4.75;3.00;;;;;21.71;54.05;100983.81;5017379;28;45577;-60
2021/08/09 09:55:42;;;;;;;;;3.25;3.00;;;;;21.77;53.90;100977.63;5017139;28;45519;-60
2021/08/09 09:58:07;;;;;;;;;3.50;2.00;;;;;21.83;53.81;100980.53;5017006;28;45511;-60
2021/08/09 10:00:33;;;;;;;;;4.00;3.25;;;;;21.87;52.92;100979.09;5014761;28;64422;-59
2021/08/09 10:02:58;;;;;;;;;4.75;4.00;;;;;21.93;52.96;100979.16;5016145;28;68232;-59
2021/08/09 10:05:24;;;;;;;;;5.75;2.75;;;;;22.03;52.97;100986.78;5016042;28;70249;-60
2021/08/09 10:07:50;;;;;;;;;4.00;3.00;;;;;22.13;53.15;100990.94;5015382;28;71028;-60
2021/08/09 10:10:15;;;;;;;;;3.00;3.00;;;;;22.19;51.62;100988.25;5014837;28;66686;-60
2021/08/09 10:12:41;;;;;;;;;3.00;3.00;;;;;22.24;51.99;100988.47;5016982;28;45204;-60
2021/08/09 10:15:07;;;;;;;;;4.00;3.00;;;;;22.30;51.78;100988.69;4999007;28;46160;-60
2021/08/09 10:17:32;;;;;;;;;4.00;4.00;;;;;22.36;51.25;100990.56;5016576;28;45225;-60
2021/08/09 10:20:03;;;;;;;;;2.00;2.00;;;;;22.40;50.94;100978.44;5014552;28;66570;-59
2021/08/09 10:22:28;;;;;;;;;5.50;4.25;;;;;22.41;50.84;100981.91;4999296;28;45528;-59
2021/08/09 10:24:55;;;;;;;;;3.00;2.00;;;;;22.41;51.05;100971.19;5014310;28;66894;-60
2021/08/09 10:27:45;;;;;;;;;3.00;3.00;;;;;22.43;51.54;100972.66;5016522;28;45282;-60
2021/08/09 10:30:21;;;;;;;;;15.25;9.25;;;;;22.48;49.99;100975.59;5016556;28;45395;-60
2021/08/09 10:32:52;;;;;;;;;3.75;2.75;;;;;22.48;50.65;100985.47;5016651;28;45419;-59
2021/08/09 10:35:32;;;;;;;;;4.75;2.50;;;;;22.49;50.63;100992.47;5014549;28;47849;-59
2021/08/09 10:38:18;;;;;;;;;3.75;3.50;;;;;22.49;50.06;100987.94;5016364;28;45368;-60
2021/08/09 10:40:44;;;;;;;;;3.50;2.00;;;;;22.48;50.33;100988.13;5016288;28;45382;-60
2021/08/09 10:43:10;;;;;;;;;3.00;3.00;;;;;22.46;50.66;100983.00;5014818;28;48525;-59
2021/08/09 10:45:44;;;;;;;;;3.00;2.50;;;;;22.46;50.63;100974.97;5016358;28;45316;-60
2021/08/09 10:48:09;;;;;;;;;2.75;2.75;;;;;22.56;50.46;100974.56;5031567;28;45943;-59
2021/08/09 10:50:39;;;;;;;;;4.00;3.00;;;;;22.65;50.26;100975.16;5016475;28;45273;-59
2021/08/09 10:53:04;;;;;;;;;2.00;2.00;;;;;22.79;49.82;100979.50;5016357;28;45384;-60
2021/08/09 10:55:29;;;;;;;;;2.25;2.25;;;;;22.94;49.31;100990.00;4997715;28;58770;-60
2021/08/09 10:57:55;;;;;;;;;6.00;2.33;;;;;23.05;49.20;100982.34;5016274;28;45439;-59
2021/08/09 11:00:38;;;;;;;;;2.25;2.00;;;;;23.18;48.55;100973.47;5014792;28;69272;-60
2021/08/09 11:03:07;;;;;;;;;4.25;3.75;;;;;23.35;47.87;100968.50;5016204;28;45492;-60
2021/08/09 11:05:33;;;;;;;;;4.00;3.00;;;;;23.49;48.83;100967.44;5016005;28;45294;-60
2021/08/09 11:08:18;;;;;;;;;2.75;2.75;;;;;23.68;48.17;100964.91;5013770;28;72202;-60
2021/08/09 11:11:03;;;;;;;;;3.75;2.00;;;;;23.88;47.56;100970.16;5008694;28;45381;-60
2021/08/09 11:13:49;;;;;;;;;4.00;3.25;;;;;24.09;47.13;100973.59;5016097;28;45395;-60
2021/08/09 11:16:28;;;;;;;;;4.50;2.25;;;;;24.31;46.54;100963.34;5031018;28;46177;-60
2021/08/09 11:18:57;;;;;;;;;4.00;3.00;;;;;24.45;45.77;100974.81;5016794;28;45223;-60
2021/08/09 11:21:22;;;;;;;;;4.25;1.75;;;;;24.56;46.12;100966.03;5017875;28;45456;-60
2021/08/09 11:23:50;;;;;;;;;2.50;2.50;;;;;24.63;45.70;100963.28;5000773;28;65986;-60
2021/08/09 11:26:19;;;;;;;;;2.25;2.00;;;;;24.65;45.37;100976.47;5019449;28;45347;-60